Time;durP1;ratioP1;P1;durP2;ratioP2;P2;SDS_P1;SDS_P2;PMS_P1;PMS_P2;Temp;Humidity;BMP_temperature;BMP_pressure;BME280_temperature;BME280_humidity;BME280_pressure;Samples;Min_cycle;Max_cycle;Signal;HPM_P1;HPM_P2
2021/01/04 00:01:03;;;;;;;20.70;16.65;;;;;;;1.80;90.23;100095.84;5059637;28;20064;-73
2021/01/04 00:03:39;;;;;;;19.50;16.00;;;;;;;1.80;89.96;100097.63;5042600;28;20057;-73
2021/01/04 00:06:26;;;;;;;23.05;15.77;;;;;;;1.80;89.88;100097.63;5059298;28;20336;-73
2021/01/04 00:09:14;;;;;;;20.95;15.80;;;;;;;1.74;89.77;100091.59;5059604;28;20045;-73
2021/01/04 00:12:14;;;;;;;21.42;16.15;;;;;;;1.66;90.08;100072.53;5058111;28;20069;-73
2021/01/04 00:14:58;;;;;;;19.48;14.70;;;;;;;1.76;90.34;100089.78;5053229;28;20045;-73
2021/01/04 00:17:47;;;;;;;22.10;14.55;;;;;;;1.74;89.62;100077.59;5058084;28;20056;-73
2021/01/04 00:20:47;;;;;;;18.85;14.50;;;;;;;1.65;89.50;100070.81;5057673;28;20056;-73
2021/01/04 00:23:26;;;;;;;21.50;14.45;;;;;;;1.61;89.37;100077.03;5040036;28;20060;-73
2021/01/04 00:26:00;;;;;;;17.88;13.45;;;;;;;1.70;89.85;100084.69;5038175;28;20050;-73
2021/01/04 00:28:30;;;;;;;20.75;13.90;;;;;;;1.63;90.15;100076.09;5037746;28;20049;-73
2021/01/04 00:31:28;;;;;;;20.50;14.75;;;;;;;1.77;89.97;100085.41;5037410;28;20049;-73
2021/01/04 00:34:14;;;;;;;16.60;13.30;;;;;;;1.72;89.54;100090.78;5037628;28;20061;-73
2021/01/04 00:37:06;;;;;;;16.30;13.30;;;;;;;1.72;89.69;100074.13;5019820;28;20446;-73
2021/01/04 00:40:00;;;;;;;15.88;12.35;;;;;;;1.69;89.61;100087.38;5020123;28;20196;-73
2021/01/04 00:42:51;;;;;;;15.35;12.18;;;;;;;1.74;89.24;100085.50;5029589;28;20409;-73
2021/01/04 00:45:43;;;;;;;15.82;11.57;;;;;;;1.74;89.41;100080.22;5037713;28;20057;-73
2021/01/04 00:48:22;;;;;;;17.08;12.35;;;;;;;1.63;89.86;100075.22;5037495;28;20099;-73
2021/01/04 00:51:23;;;;;;;14.88;12.13;;;;;;;1.67;89.71;100084.78;5037387;28;20141;-73
2021/01/04 00:53:51;;;;;;;15.13;12.15;;;;;;;1.69;89.86;100068.97;5019887;28;20087;-73
2021/01/04 00:56:36;;;;;;;15.45;12.07;;;;;;;1.76;90.03;100091.56;5019679;28;20388;-73
2021/01/04 00:59:18;;;;;;;13.23;11.60;;;;;;;1.78;89.39;100083.66;5036899;28;20049;-73
2021/01/04 01:02:02;;;;;;;13.90;10.93;;;;;;;1.76;89.47;100086.31;5037114;28;20057;-73
2021/01/04 01:04:54;;;;;;;12.55;10.82;;;;;;;1.76;89.29;100083.69;5036970;28;20080;-73
2021/01/04 01:08:02;;;;;;;12.43;10.07;;;;;;;1.74;88.82;100085.50;5036939;28;20057;-72
2021/01/04 01:10:32;;;;;;;12.02;9.98;;;;;;;1.73;89.33;100086.38;5016532;28;20049;-72
2021/01/04 01:13:10;;;;;;;12.48;10.35;;;;;;;1.67;89.58;100082.13;5036731;28;20045;-72
2021/01/04 01:15:49;;;;;;;12.13;10.13;;;;;;;1.67;88.74;100084.78;5036784;28;20053;-72
2021/01/04 01:18:41;;;;;;;11.25;9.38;;;;;;;1.72;88.48;100080.25;5036538;28;20053;-72
2021/01/04 01:21:09;;;;;;;10.68;8.77;;;;;;;1.66;89.10;100083.06;5036682;28;20060;-73
2021/01/04 01:23:39;;;;;;;10.07;8.80;;;;;;;1.56;88.72;100086.81;5016886;28;20068;-72
2021/01/04 01:26:11;;;;;;;10.60;8.70;;;;;;;1.58;88.68;100088.50;5036802;28;20080;-72
2021/01/04 01:29:02;;;;;;;11.23;9.45;;;;;;;1.54;88.79;100081.59;5035512;28;20068;-72
2021/01/04 01:31:50;;;;;;;9.85;8.38;;;;;;;1.60;88.77;100089.34;5036487;28;20129;-72
2021/01/04 01:34:41;;;;;;;9.82;8.38;;;;;;;1.66;88.63;100090.06;5036388;28;20049;-73
2021/01/04 01:37:34;;;;;;;9.32;8.32;;;;;;;1.63;88.66;100098.91;5036425;28;20053;-72
2021/01/04 01:40:20;;;;;;;10.30;9.18;;;;;;;1.61;88.36;100087.56;5036393;28;20049;-73
2021/01/04 01:43:23;;;;;;;11.82;8.95;;;;;;;1.59;88.80;100089.38;5036383;28;20057;-71
2021/01/04 01:46:12;;;;;;;10.52;8.60;;;;;;;1.57;88.37;100093.81;5036376;28;20332;-73
2021/01/04 01:48:54;;;;;;;12.50;9.05;;;;;;;1.58;88.73;100091.13;5036220;28;20053;-74
2021/01/04 01:51:45;;;;;;;10.82;9.45;;;;;;;1.58;88.95;100091.13;5035392;28;20050;-73
2021/01/04 01:54:37;;;;;;;11.10;9.57;;;;;;;1.64;89.07;100098.03;5036197;28;20065;-73
2021/01/04 01:57:31;;;;;;;11.32;9.38;;;;;;;1.57;88.93;100091.19;5025866;28;20458;-73
2021/01/04 02:00:06;;;;;;;12.27;9.57;;;;;;;1.50;88.86;100090.47;5036145;28;20056;-73
2021/01/04 02:02:39;;;;;;;11.00;9.43;;;;;;;1.48;89.39;100077.34;5034992;28;20394;-73
2021/01/04 02:05:49;;;;;;;11.40;9.45;;;;;;;1.64;88.83;100084.88;5036191;28;20057;-72
2021/01/04 02:08:23;;;;;;;10.67;8.77;;;;;;;1.51;88.88;100075.56;5036066;28;20079;-73
2021/01/04 02:10:54;;;;;;;13.20;9.75;;;;;;;1.54;89.43;100076.34;5034661;28;20421;-73
2021/01/04 02:13:33;;;;;;;11.52;9.63;;;;;;;1.58;89.22;100083.22;5035579;28;20045;-73
2021/01/04 02:16:04;;;;;;;11.38;10.00;;;;;;;1.57;88.91;100081.50;5035642;28;20049;-73
2021/01/04 02:18:47;;;;;;;11.35;9.70;;;;;;;1.59;89.14;100082.31;5035745;28;20120;-73
2021/01/04 02:21:34;;;;;;;11.73;9.80;;;;;;;1.57;89.11;100083.28;5035636;28;20057;-73
2021/01/04 02:24:10;;;;;;;11.93;10.25;;;;;;;1.50;89.91;100079.94;5042439;28;20119;-73
2021/01/04 02:26:41;;;;;;;12.10;9.35;;;;;;;1.54;89.83;100076.34;5055339;28;20397;-73
2021/01/04 02:29:15;;;;;;;13.48;10.63;;;;;;;1.56;89.20;100082.41;5055420;28;20057;-72
2021/01/04 02:31:48;;;;;;;11.10;9.60;;;;;;;1.57;89.54;100083.28;5055684;28;20052;-72
2021/01/04 02:34:18;;;;;;;12.60;9.52;;;;;;;1.61;88.79;100085.81;5055376;28;20044;-73
2021/01/04 02:36:53;;;;;;;12.23;10.77;;;;;;;1.56;89.86;100084.16;5055398;28;20052;-73
2021/01/04 02:39:19;;;;;;;11.23;9.63;;;;;;;1.56;89.33;100086.81;5055376;28;20053;-73
2021/01/04 02:42:16;;;;;;;11.30;9.23;;;;;;;1.58;89.49;100082.38;5037662;28;20056;-73
2021/01/04 02:44:44;;;;;;;11.75;9.88;;;;;;;1.57;89.10;100083.28;5046698;28;20048;-73
2021/01/04 02:47:28;;;;;;;15.15;10.00;;;;;;;1.58;89.05;100082.38;5054888;28;20060;-73
2021/01/04 02:50:23;;;;;;;10.38;9.18;;;;;;;1.47;88.57;100080.88;5055050;28;20068;-73
2021/01/04 02:53:15;;;;;;;10.38;8.88;;;;;;;1.50;88.83;100085.19;5054827;28;20098;-73
2021/01/04 02:56:11;;;;;;;11.57;9.18;;;;;;;1.59;88.26;100084.97;5054883;28;20431;-73
2021/01/04 02:58:46;;;;;;;11.88;9.45;;;;;;;1.61;89.29;100084.94;5054726;28;20419;-73
2021/01/04 03:01:43;;;;;;;12.45;10.48;;;;;;;1.58;88.30;100087.66;5054809;28;20749;-73
2021/01/04 03:04:14;;;;;;;10.75;9.27;;;;;;;1.48;88.68;100076.50;5029904;28;20063;-73
2021/01/04 03:06:53;;;;;;;11.13;9.85;;;;;;;1.53;88.59;100079.84;5055171;28;20056;-73
2021/01/04 03:09:20;;;;;;;10.52;9.43;;;;;;;1.59;88.06;100073.59;5054951;28;20102;-73
2021/01/04 03:11:46;;;;;;;10.88;9.18;;;;;;;1.60;88.66;100081.44;5053813;28;20118;-73
2021/01/04 03:14:34;;;;;;;10.43;9.32;;;;;;;1.53;88.91;100086.88;5054765;28;20106;-73
2021/01/04 03:17:13;;;;;;;13.85;10.43;;;;;;;1.41;88.91;100075.75;5054881;28;20132;-73
2021/01/04 03:19:43;;;;;;;12.18;9.85;;;;;;;1.48;88.94;100077.34;5058221;28;20053;-73
2021/01/04 03:22:14;;;;;;;8.65;7.00;;;;;;;1.49;88.72;100079.06;5059072;28;20053;-73
2021/01/04 03:24:46;;;;;;;11.02;9.02;;;;;;;1.51;88.90;100086.06;5058450;28;20057;-73
2021/01/04 03:27:16;;;;;;;11.52;10.30;;;;;;;1.53;89.30;100098.25;5058736;28;20052;-73
2021/01/04 03:29:42;;;;;;;14.98;10.98;;;;;;;1.54;89.53;100093.88;5058903;28;20061;-73
2021/01/04 03:32:08;;;;;;;12.88;10.95;;;;;;;1.53;89.11;100095.63;5058768;28;20057;-73
2021/01/04 03:34:34;;;;;;;12.05;10.63;;;;;;;1.56;89.22;100094.69;5058509;28;20053;-73
2021/01/04 03:37:00;;;;;;;12.10;10.63;;;;;;;1.51;88.36;100097.44;5040795;28;20053;-73
2021/01/04 03:39:30;;;;;;;12.82;10.88;;;;;;;1.56;89.19;100090.31;5058244;28;20057;-73
2021/01/04 03:41:57;;;;;;;11.63;10.07;;;;;;;1.50;89.39;100095.72;5058343;28;20057;-73
2021/01/04 03:44:26;;;;;;;12.10;10.10;;;;;;;1.48;89.35;100090.50;5058462;28;20068;-73
2021/01/04 03:46:52;;;;;;;13.40;10.85;;;;;;;1.47;89.78;100090.53;5058734;28;20118;-73
2021/01/04 03:49:19;;;;;;;14.43;11.05;;;;;;;1.44;89.84;100086.22;5058102;28;20355;-73
2021/01/04 03:51:55;;;;;;;11.88;10.23;;;;;;;1.52;89.15;100093.91;5058031;28;20053;-73
2021/01/04 03:54:21;;;;;;;13.57;10.32;;;;;;;1.54;89.16;100088.63;5040595;28;20358;-73
2021/01/04 03:56:52;;;;;;;11.27;9.95;;;;;;;1.47;88.46;100091.41;5058114;28;20056;-73
2021/01/04 03:59:18;;;;;;;11.43;10.23;;;;;;;1.46;88.95;100089.66;5057904;28;20167;-73
2021/01/04 04:01:52;;;;;;;14.45;10.88;;;;;;;1.46;89.35;100091.41;5058103;28;20049;-73
2021/01/04 04:04:19;;;;;;;14.20;11.30;;;;;;;1.43;89.03;100084.50;5040545;28;20136;-73
2021/01/04 04:06:45;;;;;;;11.80;10.25;;;;;;;1.59;88.35;100079.69;5058095;28;20045;-73
2021/01/04 04:09:16;;;;;;;12.85;10.10;;;;;;;1.51;88.91;100086.06;5040455;28;20072;-73
2021/01/04 04:11:43;;;;;;;9.20;8.00;;;;;;;1.52;89.10;100087.78;5057854;28;20049;-73
2021/01/04 04:14:09;;;;;;;13.02;10.30;;;;;;;1.48;89.25;100082.59;5058143;28;20059;-73
2021/01/04 04:16:37;;;;;;;12.65;10.68;;;;;;;1.49;89.39;100076.44;5057674;28;20061;-73
2021/01/04 04:19:04;;;;;;;11.88;10.55;;;;;;;1.50;89.08;100082.56;5057532;28;20053;-73
2021/01/04 04:21:30;;;;;;;13.77;11.18;;;;;;;1.48;89.12;100082.59;5057934;28;20060;-73
2021/01/04 04:23:57;;;;;;;12.43;10.60;;;;;;;1.41;89.27;100083.66;5057248;28;20065;-74
2021/01/04 04:26:26;;;;;;;13.52;11.32;;;;;;;1.40;89.41;100079.28;5038788;28;20053;-73
2021/01/04 04:28:53;;;;;;;14.82;11.60;;;;;;;1.45;89.79;100076.53;5038267;28;20457;-73
2021/01/04 04:31:20;;;;;;;15.00;11.55;;;;;;;1.50;89.45;100079.94;5056516;28;20052;-73
2021/01/04 04:33:47;;;;;;;14.73;11.90;;;;;;;1.24;89.47;100049.03;5056196;28;20049;-73
2021/01/04 04:36:24;;;;;;;13.05;11.05;;;;;;;1.36;89.33;100072.38;5056610;28;20053;-74
2021/01/04 04:38:53;;;;;;;15.20;12.25;;;;;;;1.42;90.17;100080.13;5056295;28;20053;-73
2021/01/04 04:41:30;;;;;;;13.70;11.27;;;;;;;1.37;90.03;100078.50;5038868;28;20152;-73
2021/01/04 04:44:08;;;;;;;13.20;11.60;;;;;;;1.14;89.60;100051.00;5056074;28;20337;-74
2021/01/04 04:47:11;;;;;;;14.82;11.63;;;;;;;1.40;89.60;100084.56;5055289;28;20048;-73
2021/01/04 04:50:14;;;;;;;13.18;11.50;;;;;;;1.34;90.30;100089.97;5035201;28;20339;-73
2021/01/04 04:53:10;;;;;;;13.60;11.07;;;;;;;1.36;89.95;100090.78;5056194;28;20068;-73
2021/01/04 04:56:13;;;;;;;14.23;11.60;;;;;;;1.39;89.84;100088.09;5056354;28;20056;-73
2021/01/04 04:58:48;;;;;;;11.63;10.43;;;;;;;1.39;89.67;100082.84;5055886;28;20053;-73
2021/01/04 05:01:14;;;;;;;13.57;11.13;;;;;;;1.43;89.59;100081.88;5054810;28;20080;-73
2021/01/04 05:04:15;;;;;;;12.05;10.25;;;;;;;1.49;89.36;100089.59;5055824;28;20056;-73
2021/01/04 05:06:54;;;;;;;12.52;10.68;;;;;;;1.36;89.49;100082.88;5055413;28;20057;-73
2021/01/04 05:09:38;;;;;;;13.27;10.93;;;;;;;1.40;89.75;100084.56;5038240;28;20477;-73
2021/01/04 05:12:33;;;;;;;12.85;10.02;;;;;;;1.39;89.64;100081.97;5055680;28;20049;-73
2021/01/04 05:15:24;;;;;;;12.57;11.27;;;;;;;1.34;89.93;100085.59;5055468;28;20098;-73
2021/01/04 05:18:28;;;;;;;14.10;10.60;;;;;;;1.38;89.74;100086.38;5055900;28;20049;-73
2021/01/04 05:21:19;;;;;;;11.52;9.80;;;;;;;1.36;89.59;100085.53;5055452;28;20053;-73
2021/01/04 05:23:50;;;;;;;14.45;10.55;;;;;;;1.32;89.52;100089.16;5034262;28;611493;-73
2021/01/04 05:26:41;;;;;;;11.98;10.63;;;;;;;1.30;89.72;100093.59;5056642;28;20128;-73
2021/01/04 05:29:31;;;;;;;12.25;10.27;;;;;;;1.26;89.83;100087.53;5056360;28;20045;-73
2021/01/04 05:32:15;;;;;;;16.67;10.75;;;;;;;1.29;89.80;100090.06;5056203;28;20068;-73
2021/01/04 05:34:46;;;;;;;13.30;9.48;;;;;;;1.31;89.78;100084.78;5056542;28;20099;-73
2021/01/04 05:37:31;;;;;;;12.00;10.55;;;;;;;1.32;89.67;100091.78;5056076;28;20496;-73
2021/01/04 05:40:13;;;;;;;12.52;9.90;;;;;;;1.32;89.77;100089.16;5055840;28;20130;-73
2021/01/04 05:42:59;;;;;;;12.43;10.52;;;;;;;1.30;89.89;100094.44;5055737;28;20052;-73
2021/01/04 05:45:28;;;;;;;13.55;11.30;;;;;;;1.26;90.02;100094.53;5056211;28;20057;-73
2021/01/04 05:47:58;;;;;;;13.27;10.95;;;;;;;1.31;89.62;100100.56;5055996;28;20049;-73
2021/01/04 05:50:45;;;;;;;14.13;10.97;;;;;;;1.30;89.87;100104.09;5056130;28;20650;-73
2021/01/04 05:53:12;;;;;;;14.00;10.25;;;;;;;1.33;89.94;100093.50;5055883;28;20111;-73
2021/01/04 05:55:38;;;;;;;13.40;11.15;;;;;;;1.24;89.93;100101.63;5038267;28;20057;-73
2021/01/04 05:58:19;;;;;;;15.30;10.07;;;;;;;1.30;89.54;100110.22;5056070;28;20045;-73
2021/01/04 06:00:45;;;;;;;;;;;;;;;1.33;89.86;100104.88;5058743;28;20099;-73
2021/01/04 06:03:15;;;;;;;13.18;10.30;;;;;;;1.35;89.87;100107.47;5055878;28;19943;-73
2021/01/04 06:05:41;;;;;;;11.60;10.40;;;;;;;1.32;90.04;100113.66;5055539;28;20754;-73
2021/01/04 06:08:28;;;;;;;13.32;11.07;;;;;;;1.35;89.90;100112.72;5055677;28;20460;-73
2021/01/04 06:11:10;;;;;;;12.88;11.32;;;;;;;1.31;89.87;100111.09;5055569;28;20053;-73
2021/01/04 06:13:40;;;;;;;14.00;10.27;;;;;;;1.27;89.86;100112.03;5055530;28;20457;-73
2021/01/04 06:16:08;;;;;;;14.55;10.88;;;;;;;1.31;89.71;100113.72;5055257;28;20056;-73
2021/01/04 06:18:41;;;;;;;12.00;10.70;;;;;;;1.35;89.42;100128.50;5055244;28;20045;-73
2021/01/04 06:21:24;;;;;;;17.60;10.68;;;;;;;1.33;89.58;100122.41;5058248;28;20057;-74
2021/01/04 06:23:53;;;;;;;11.98;9.95;;;;;;;1.35;89.45;100125.88;5055108;28;20439;-72
2021/01/04 06:26:23;;;;;;;12.23;10.30;;;;;;;1.34;89.37;100124.16;5055263;28;20442;-77
2021/01/04 06:29:06;;;;;;;11.50;9.70;;;;;;;1.43;88.51;100129.22;5055241;28;20041;-71
2021/01/04 06:31:38;;;;;;;11.52;10.00;;;;;;;1.33;88.94;100123.31;5060168;28;20045;-72
2021/01/04 06:34:18;;;;;;;11.88;9.93;;;;;;;1.32;89.06;100118.06;5037833;28;20334;-72
2021/01/04 06:36:49;;;;;;;12.07;10.13;;;;;;;1.19;89.80;100107.84;5056892;28;20266;-73
2021/01/04 06:39:24;;;;;;;12.60;10.88;;;;;;;1.39;89.35;100131.94;5053943;28;20110;-71
2021/01/04 06:41:52;;;;;;;17.95;10.60;;;;;;;1.32;89.25;100125.97;5051948;28;20049;-73
2021/01/04 06:44:28;;;;;;;12.93;10.38;;;;;;;1.35;88.84;100139.91;5053009;28;20045;-77
2021/01/04 06:47:13;;;;;;;11.90;9.48;;;;;;;1.31;89.12;100132.97;5059838;28;20496;-77
2021/01/04 06:49:51;;;;;;;12.80;10.30;;;;;;;1.25;89.18;100142.78;5054117;28;20594;-82
2021/01/04 06:52:17;;;;;;;14.30;10.25;;;;;;;1.27;89.19;100139.22;5050920;28;20045;-76
2021/01/04 06:55:17;;;;;;;11.98;10.15;;;;;;;1.37;89.49;100142.50;5062360;28;20453;-78
2021/01/04 06:58:34;;;;;;;13.20;9.95;;;;;;;1.32;89.23;100142.59;5036568;28;20052;-79
2021/01/04 07:01:18;;;;;;;12.98;9.75;;;;;;;1.22;89.11;100122.69;5004030;28;20050;-76
2021/01/04 07:04:28;;;;;;;11.60;9.70;;;;;;;1.22;89.11;100136.66;5056199;28;20056;-78
2021/01/04 07:07:05;;;;;;;12.88;10.32;;;;;;;1.27;89.39;100148.84;5050332;28;20052;-76
2021/01/04 07:09:45;;;;;;;12.73;9.55;;;;;;;1.32;88.76;100153.09;5054646;28;20074;-77
2021/01/04 07:12:36;;;;;;;11.50;9.75;;;;;;;1.21;88.79;100141.97;5054134;28;20464;-77
2021/01/04 07:15:08;;;;;;;11.82;9.73;;;;;;;1.22;88.94;100157.69;5055695;28;20045;-77
2021/01/04 07:18:02;;;;;;;12.48;9.68;;;;;;;1.21;88.94;100155.97;5053923;28;20488;-76
2021/01/04 07:20:50;;;;;;;11.63;9.82;;;;;;;1.22;88.94;100164.75;5053712;28;20107;-79
2021/01/04 07:23:44;;;;;;;13.00;10.18;;;;;;;1.26;88.99;100165.53;5048489;28;20053;-78
2021/01/04 07:26:47;;;;;;;11.93;9.65;;;;;;;1.27;88.85;100164.63;5061416;28;20046;-76
2021/01/04 07:29:35;;;;;;;12.80;9.32;;;;;;;1.37;89.04;100163.53;5043715;28;20127;-77
2021/01/04 07:32:10;;;;;;;11.43;9.77;;;;;;;1.32;88.95;100168.03;5054669;28;20076;-75
2021/01/04 07:34:46;;;;;;;11.48;8.90;;;;;;;1.33;88.73;100170.63;5053580;28;20041;-71
2021/01/04 07:37:43;;;;;;;12.45;9.95;;;;;;;1.42;89.20;100166.91;5047793;28;20053;-75
2021/01/04 07:40:41;;;;;;;12.13;10.82;;;;;;;1.40;89.07;100175.72;5053142;28;20072;-74
2021/01/04 07:43:48;;;;;;;10.73;8.75;;;;;;;1.43;88.99;100173.03;5040172;28;20056;-80
2021/01/04 07:46:39;;;;;;;12.80;9.35;;;;;;;1.42;88.60;100166.06;5050519;28;20049;-74
2021/01/04 07:49:15;;;;;;;12.65;9.95;;;;;;;1.43;88.60;100173.94;5053303;28;20052;-74
2021/01/04 07:52:05;;;;;;;11.18;8.52;;;;;;;1.46;88.04;100176.47;5052804;28;20075;-73
2021/01/04 07:55:12;;;;;;;9.85;8.70;;;;;;;1.48;88.48;100176.44;5053349;28;20057;-74
2021/01/04 07:58:11;;;;;;;10.73;8.57;;;;;;;1.47;88.25;100186.09;5049982;28;20057;-77
2021/01/04 08:00:56;;;;;;;11.35;9.27;;;;;;;1.34;88.75;100177.63;5053370;28;20049;-74
2021/01/04 08:03:54;;;;;;;12.15;9.85;;;;;;;1.44;89.04;100186.16;5053887;28;20057;-72
2021/01/04 08:07:02;;;;;;;12.70;10.23;;;;;;;1.45;88.77;100187.00;5010325;28;20072;-73
2021/01/04 08:10:08;;;;;;;11.27;10.07;;;;;;;1.37;88.75;100189.84;5057750;28;20056;-74
2021/01/04 08:12:59;;;;;;;13.68;10.65;;;;;;;1.44;89.18;100183.53;5057614;28;20053;-74
2021/01/04 08:15:32;;;;;;;13.38;10.52;;;;;;;1.43;89.04;100194.97;5057113;28;20072;-73
2021/01/04 08:18:05;;;;;;;15.00;9.60;;;;;;;1.49;88.86;100201.84;5057060;28;20382;-75
2021/01/04 08:20:33;;;;;;;13.27;10.23;;;;;;;1.33;89.35;100186.41;5055366;28;20060;-73
2021/01/04 08:23:11;;;;;;;13.00;10.52;;;;;;;1.37;89.20;100200.34;5040195;28;20071;-73
2021/01/04 08:26:06;;;;;;;12.50;10.40;;;;;;;1.31;88.97;100203.97;5041178;28;20056;-74
2021/01/04 08:28:33;;;;;;;15.13;11.32;;;;;;;1.35;89.44;100194.25;5057070;28;20052;-71
2021/01/04 08:31:13;;;;;;;13.55;10.60;;;;;;;1.38;89.26;100196.81;5056848;28;20102;-72
2021/01/04 08:33:49;;;;;;;12.05;10.38;;;;;;;1.43;89.39;100197.59;5073884;28;20052;-71
2021/01/04 08:36:26;;;;;;;21.35;10.32;;;;;;;1.30;89.05;100196.97;5060415;28;20075;-71
2021/01/04 08:39:26;;;;;;;12.40;10.55;;;;;;;1.45;88.99;100200.16;5056839;28;20049;-72
2021/01/04 08:42:02;;;;;;;11.40;9.95;;;;;;;1.43;88.59;100205.47;5038627;28;20045;-76
2021/01/04 08:44:30;;;;;;;14.70;10.68;;;;;;;1.46;89.35;100210.66;5056415;28;20118;-75
2021/01/04 08:47:29;;;;;;;13.43;10.77;;;;;;;1.41;88.81;100206.41;5056029;28;20052;-72
2021/01/04 08:50:14;;;;;;;13.60;11.10;;;;;;;1.51;89.15;100209.69;5043350;28;20064;-72
2021/01/04 08:52:51;;;;;;;14.02;11.23;;;;;;;1.53;88.47;100210.53;5059666;28;20053;-72
2021/01/04 08:55:31;;;;;;;12.20;10.18;;;;;;;1.56;89.06;100206.06;5068165;28;20496;-74
2021/01/04 08:58:01;;;;;;;14.55;10.65;;;;;;;1.58;88.80;100217.41;5056207;28;20045;-72
2021/01/04 09:00:29;;;;;;;12.73;10.20;;;;;;;1.58;88.54;100214.78;5056054;28;20069;-75
2021/01/04 09:02:56;;;;;;;12.52;10.50;;;;;;;1.53;88.57;100216.63;5055821;28;20067;-73
2021/01/04 09:05:34;;;;;;;13.38;11.40;;;;;;;1.54;88.32;100233.28;5054689;28;20056;-74
2021/01/04 09:08:03;;;;;;;14.05;10.82;;;;;;;1.60;88.34;100214.75;5055470;28;20052;-74
2021/01/04 09:10:38;;;;;;;13.05;10.68;;;;;;;1.68;88.02;100230.38;5058524;28;20057;-74
2021/01/04 09:13:12;;;;;;;14.80;11.45;;;;;;;1.70;87.60;100229.41;5040126;28;20541;-75
2021/01/04 09:15:40;;;;;;;14.52;10.73;;;;;;;1.68;88.08;100228.59;5036771;28;20302;-74
2021/01/04 09:18:38;;;;;;;12.45;10.20;;;;;;;1.70;88.14;100229.41;5034930;28;20124;-73
2021/01/04 09:21:33;;;;;;;13.02;10.77;;;;;;;1.71;88.13;100230.28;5040308;28;20338;-77
2021/01/04 09:24:14;;;;;;;14.98;11.05;;;;;;;1.67;87.75;100233.88;5055435;28;20047;-76
2021/01/04 09:26:43;;;;;;;13.63;11.07;;;;;;;1.62;87.85;100216.44;5040906;28;20044;-77
2021/01/04 09:29:12;;;;;;;12.77;10.98;;;;;;;1.68;88.18;100230.38;5056135;28;20175;-76
2021/01/04 09:31:54;;;;;;;15.15;11.93;;;;;;;1.68;88.33;100235.63;5057986;28;20070;-74
2021/01/04 09:34:22;;;;;;;15.05;11.60;;;;;;;1.70;87.92;100236.44;5056876;28;20041;-72
2021/01/04 09:36:49;;;;;;;13.77;10.88;;;;;;;1.68;88.30;100231.22;5055733;28;20052;-74
2021/01/04 09:39:24;;;;;;;16.60;12.15;;;;;;;1.70;88.50;100231.19;5057911;28;20044;-74
2021/01/04 09:41:56;;;;;;;14.43;11.23;;;;;;;1.70;88.33;100234.66;5058014;28;20048;-74
2021/01/04 09:44:23;;;;;;;18.40;12.20;;;;;;;1.76;88.26;100231.91;5055663;28;20141;-75
2021/01/04 09:47:03;;;;;;;15.57;12.65;;;;;;;1.74;87.91;100225.81;5054611;28;20088;-73
2021/01/04 09:49:40;;;;;;;15.48;11.73;;;;;;;1.80;87.78;100235.31;5055457;28;20041;-74
2021/01/04 09:52:45;;;;;;;17.20;11.98;;;;;;;1.70;88.44;100218.88;5055778;28;20140;-74
2021/01/04 09:55:12;;;;;;;17.05;12.38;;;;;;;1.76;88.17;100237.16;5053355;28;20419;-77
2021/01/04 09:57:43;;;;;;;15.27;12.48;;;;;;;1.77;87.98;100230.13;5055409;28;20447;-73
2021/01/04 10:00:17;;;;;;;16.65;13.00;;;;;;;1.81;87.97;100241.47;5050416;28;20045;-75
2021/01/04 10:02:43;;;;;;;15.73;11.70;;;;;;;1.75;87.71;100232.78;5056654;28;20316;-73
2021/01/04 10:05:12;;;;;;;15.50;12.35;;;;;;;1.82;88.12;100237.91;5053039;28;20108;-71
2021/01/04 10:07:40;;;;;;;15.18;12.48;;;;;;;1.68;87.66;100235.63;5053688;28;20048;-73
2021/01/04 10:10:13;;;;;;;16.77;12.13;;;;;;;1.71;88.30;100233.78;5058062;28;20049;-71
2021/01/04 10:12:39;;;;;;;15.35;12.77;;;;;;;1.80;88.40;100240.59;5059449;28;20049;-75
2021/01/04 10:15:16;;;;;;;15.63;12.32;;;;;;;1.75;87.23;100230.16;5054464;28;20052;-76
2021/01/04 10:18:12;;;;;;;14.82;11.73;;;;;;;1.83;87.52;100237.00;5037884;28;20103;-75
2021/01/04 10:20:56;;;;;;;14.98;12.05;;;;;;;1.63;87.49;100209.41;5035987;28;20431;-77
2021/01/04 10:23:26;;;;;;;15.32;12.05;;;;;;;1.82;87.95;100222.13;5064295;28;20150;-72
2021/01/04 10:25:58;;;;;;;10.53;8.77;;;;;;;1.89;87.99;100227.22;5052262;28;20431;-77
2021/01/04 10:28:30;;;;;;;14.77;11.20;;;;;;;1.74;87.54;100225.81;5054464;28;20083;-75
2021/01/04 10:31:08;;;;;;;14.88;11.77;;;;;;;1.71;88.09;100225.91;5054767;28;20048;-76
2021/01/04 10:33:37;;;;;;;15.05;12.90;;;;;;;1.76;88.47;100231.91;5052809;28;20045;-78
2021/01/04 10:36:18;;;;;;;15.93;12.18;;;;;;;1.93;87.94;100229.75;5054286;28;20052;-71
2021/01/04 10:38:57;;;;;;;14.55;11.05;;;;;;;1.97;87.49;100219.13;5036840;28;20049;-72
2021/01/04 10:41:28;;;;;;;15.27;12.27;;;;;;;1.89;87.56;100235.13;5055825;28;20057;-74
2021/01/04 10:44:12;;;;;;;15.10;12.20;;;;;;;1.98;87.56;100228.78;5053907;28;20053;-75
2021/01/04 10:46:43;;;;;;;15.68;12.10;;;;;;;1.81;87.39;100225.66;5035244;28;20061;-74
2021/01/04 10:49:21;;;;;;;15.48;12.02;;;;;;;1.72;87.71;100205.69;5055366;28;20401;-74
2021/01/04 10:51:53;;;;;;;15.35;12.18;;;;;;;1.90;87.99;100225.44;5056613;28;20049;-75
2021/01/04 10:54:53;;;;;;;16.70;12.50;;;;;;;2.01;87.31;100228.69;5054394;28;20386;-74
2021/01/04 10:57:34;;;;;;;13.90;11.70;;;;;;;1.97;87.17;100228.81;5007441;28;20049;-75
2021/01/04 11:00:16;;;;;;;18.45;12.48;;;;;;;1.97;87.52;100231.44;5053581;28;20055;-78
2021/01/04 11:02:46;;;;;;;15.00;12.13;;;;;;;1.97;88.05;100224.38;5055123;28;20045;-80
2021/01/04 11:05:19;;;;;;;17.30;12.38;;;;;;;1.94;87.48;100221.84;5050223;28;20118;-73
2021/01/04 11:07:46;;;;;;;14.80;11.77;;;;;;;1.97;87.72;100226.16;5054349;28;20090;-73
2021/01/04 11:10:27;;;;;;;15.10;11.98;;;;;;;1.93;87.36;100224.50;5052119;28;20084;-73
2021/01/04 11:12:59;;;;;;;16.27;12.23;;;;;;;1.79;87.10;100222.22;5054622;28;20048;-77
2021/01/04 11:15:32;;;;;;;15.90;12.40;;;;;;;1.83;88.29;100229.13;5053663;28;20044;-76
2021/01/04 11:18:09;;;;;;;15.60;13.00;;;;;;;1.83;87.97;100221.22;5052476;28;20382;-74
2021/01/04 11:20:36;;;;;;;14.65;12.20;;;;;;;1.88;87.81;100208.81;5053000;28;20052;-79
2021/01/04 11:23:07;;;;;;;17.00;13.25;;;;;;;1.70;88.10;100210.13;5054423;28;20140;-76
2021/01/04 11:25:35;;;;;;;15.05;12.40;;;;;;;1.90;87.30;100215.78;5051354;28;20045;-74
2021/01/04 11:28:01;;;;;;;16.08;13.48;;;;;;;1.83;87.91;100208.06;5054448;28;20049;-74
2021/01/04 11:30:29;;;;;;;20.48;13.85;;;;;;;1.89;88.27;100214.06;5053922;28;20053;-74
2021/01/04 11:33:00;;;;;;;18.42;14.23;;;;;;;1.93;87.89;100209.59;5054206;28;20057;-76
2021/01/04 11:35:28;;;;;;;;;;;;;;;1.95;87.43;100209.56;5058788;28;20048;-73
2021/01/04 11:37:55;;;;;;;15.45;12.90;;;;;;;1.86;87.43;100193.06;5055285;28;20018;-72
2021/01/04 11:40:22;;;;;;;17.73;14.07;;;;;;;1.86;87.81;100190.44;5058560;28;20057;-71
2021/01/04 11:42:49;;;;;;;16.25;13.20;;;;;;;1.90;87.89;100199.13;5064221;28;20110;-75
2021/01/04 11:45:18;;;;;;;17.13;13.07;;;;;;;1.83;87.54;100193.16;5058397;28;20057;-75
2021/01/04 11:47:44;;;;;;;16.98;13.57;;;;;;;1.86;87.75;100193.06;5040915;28;20061;-76
2021/01/04 11:50:12;;;;;;;16.67;12.95;;;;;;;1.97;87.14;100195.44;5066999;28;20357;-76
2021/01/04 11:52:39;;;;;;;16.60;13.48;;;;;;;2.00;86.69;100192.72;5068159;28;20139;-75
2021/01/04 11:55:09;;;;;;;18.70;13.20;;;;;;;2.07;87.04;100184.69;5058280;28;20060;-77
2021/01/04 11:57:36;;;;;;;19.10;14.02;;;;;;;2.07;86.82;100188.16;5058209;28;20049;-77
2021/01/04 12:00:07;;;;;;;18.52;13.50;;;;;;;1.97;87.16;100176.16;5063000;28;20049;-75
2021/01/04 12:02:34;;;;;;;17.77;13.98;;;;;;;2.02;86.75;100183.03;5058064;28;20461;-76
2021/01/04 12:05:00;;;;;;;16.02;12.95;;;;;;;1.96;86.85;100180.53;5061609;28;20098;-77
2021/01/04 12:07:26;;;;;;;17.35;13.98;;;;;;;2.05;87.06;100189.13;5066248;28;20044;-77
2021/01/04 12:09:53;;;;;;;14.20;12.00;;;;;;;1.94;87.05;100187.63;5040183;28;20061;-78
2021/01/04 12:12:20;;;;;;;20.73;14.98;;;;;;;1.89;87.56;100184.22;5057052;28;20053;-75